CYHI

Ulukhaktok Holman Airport

Ulukhaktok, Northwest Territories, Canada
METAR CYHI 170100Z 07013KT 15SM FEW090 M21/M24 A2965 RMK AC1 AC TR -20.9/-23.6/S0.0/20.0 HARD PACK FROIN DD/LAST OBS/NXT 171500Z SLP046
Observed Flight Rules
Dec-17 @ 01:00 UTC (7 hours ago) Visual Flight Rules
Wind Visibility Clouds
70° at 13 knots 15 miles
  • Few at 9,000' AGL
Temperatures Readings
Current -21°C / -6°F
Dewpoint -24°C / -11°F
Humidity 77%
Altimeter 29.65" Hg
Pressure 1004.6 hPa
Elevation 36
METAR CYHI 170100Z 07013KT 15SM FEW090 M21/M24 A2965 RMK AC1 AC TR -20.9/-23.6/S0.0/20.0 HARD PACK FROIN DD/LAST OBS/NXT 171500Z SLP046
Observed Flight Rules
Dec-17 @ 01:00 UTC
(7 hours ago)
VFR
Wind Visibility
70° at 13 knots 15 miles
Clouds
  • Few at 9,000' AGL
Temperature Dewpoint
-21°C / -6°F -24°C / -11°F
Humidity Altimeter Pressure
77% 29.65" Hg 1004.6 hPa